Clayton, Texas
Current Conditions -  °F | °C
As of 3:15 AM on Thursday 18 Dec 2014 (Local Time) from KRFI Reporting Station
Overcast Overcast  
Wind Chill: 42°   Ceiling: 500
Heat Index: 44°   Visibility: 7mi
Dew Point: 44°   Wind: 5mph
Humidity: 99%   Direction: 40°NE
Pressure: 30.15"   Gusts: NA
Location:  32.1°N, 94.48°W
Report Text: KRFI 180915Z AUTO 04004KT 7SM OVC005 07/07 A3015 RMK AO2 T00680067
Loading
Personal Weather Stations






























Interactive Weather Map New forecast layout! Learn more

10-Day Weather Forecast

Advertisements
Track Severe Weather on mobile